Time;durP1;ratioP1;P1;durP2;ratioP2;P2;SDS_P1;SDS_P2;PMS_P1;PMS_P2;Temp;Humidity;BMP_temperature;BMP_pressure;BME280_temperature;BME280_humidity;BME280_pressure;Samples;Min_cycle;Max_cycle;Signal;HPM_P1;HPM_P2
2022/09/17 00:00:23;;;;;;;36.63;2.20;;;9.50;99.90;;;;;;5071444;28;20079;-75
2022/09/17 00:02:55;;;;;;;22.52;2.67;;;9.50;99.90;;;;;;5070201;28;20455;-78
2022/09/17 00:05:22;;;;;;;24.70;1.48;;;9.40;99.90;;;;;;5069465;28;20036;-76
2022/09/17 00:07:49;;;;;;;27.67;2.58;;;9.40;99.90;;;;;;5071346;28;20439;-75
2022/09/17 00:10:14;;;;;;;19.90;2.13;;;9.40;99.90;;;;;;5072241;28;20055;-77
2022/09/17 00:12:40;;;;;;;20.50;1.50;;;9.40;99.90;;;;;;5070959;28;20048;-75
2022/09/17 00:15:07;;;;;;;26.02;2.30;;;9.50;99.90;;;;;;5070241;28;20132;-77
2022/09/17 00:17:32;;;;;;;20.60;1.20;;;9.50;99.90;;;;;;5049594;28;20053;-77
2022/09/17 00:19:58;;;;;;;30.70;2.58;;;9.60;99.90;;;;;;5084344;28;20044;-75
2022/09/17 00:22:24;;;;;;;34.92;2.63;;;9.50;99.90;;;;;;5092274;28;20048;-74
2022/09/17 00:24:49;;;;;;;19.67;1.95;;;9.50;99.90;;;;;;5090156;28;20452;-74
2022/09/17 00:27:15;;;;;;;23.60;1.10;;;9.50;99.90;;;;;;5072415;28;20049;-75
2022/09/17 00:29:41;;;;;;;19.75;1.40;;;9.50;99.90;;;;;;5070231;28;20048;-77
2022/09/17 00:32:07;;;;;;;20.80;1.60;;;9.40;99.90;;;;;;5070748;28;20122;-79
2022/09/17 00:34:33;;;;;;;27.73;1.45;;;9.40;99.90;;;;;;5070253;28;20159;-75
2022/09/17 00:36:59;;;;;;;25.50;1.15;;;9.50;99.90;;;;;;5070623;28;20139;-76
2022/09/17 00:39:24;;;;;;;25.35;2.42;;;9.60;99.90;;;;;;5069507;28;20094;-75
2022/09/17 00:41:50;;;;;;;29.35;1.48;;;9.60;99.90;;;;;;5054992;28;20445;-76
2022/09/17 00:44:37;;;;;;;24.63;2.25;;;9.60;99.90;;;;;;5057487;28;20044;-76
2022/09/17 00:47:03;;;;;;;38.88;2.83;;;9.60;99.90;;;;;;5049861;28;20409;-75
2022/09/17 00:49:31;;;;;;;29.60;1.60;;;9.50;99.90;;;;;;5048235;28;20056;-76
2022/09/17 00:52:13;;;;;;;29.00;1.80;;;9.60;99.90;;;;;;5049629;28;20092;-74
2022/09/17 00:54:43;;;;;;;22.80;1.75;;;9.60;99.90;;;;;;5049304;28;20049;-77
2022/09/17 00:57:09;;;;;;;26.13;1.73;;;9.60;99.90;;;;;;5049352;28;20124;-77
2022/09/17 00:59:35;;;;;;;22.83;2.60;;;9.60;99.90;;;;;;5050679;28;20052;-76
2022/09/17 01:02:02;;;;;;;20.47;1.40;;;9.60;99.90;;;;;;5064139;28;20044;-77
2022/09/17 01:04:27;;;;;;;31.13;2.00;;;9.50;99.90;;;;;;5064073;28;20082;-80
2022/09/17 01:07:08;;;;;;;26.88;1.67;;;9.60;99.90;;;;;;5054799;28;20134;-77
2022/09/17 01:10:15;;;;;;;32.95;2.88;;;9.50;99.90;;;;;;5090686;28;20087;-77
2022/09/17 01:13:04;;;;;;;23.05;2.60;;;9.50;99.90;;;;;;5050087;28;20078;-76
2022/09/17 01:15:42;;;;;;;21.63;1.65;;;9.40;99.90;;;;;;5044444;28;20049;-79
2022/09/17 01:18:26;;;;;;;22.58;1.58;;;9.40;99.90;;;;;;5054253;28;20129;-78
2022/09/17 01:21:19;;;;;;;27.20;2.00;;;9.40;99.90;;;;;;5056952;28;20414;-83
2022/09/17 01:24:06;;;;;;;24.02;2.47;;;9.30;99.90;;;;;;5069049;28;20123;-78
2022/09/17 01:26:41;;;;;;;19.52;1.60;;;9.20;99.90;;;;;;5074834;28;20173;-78
2022/09/17 01:29:33;;;;;;;20.02;2.05;;;9.20;99.90;;;;;;5073847;28;20060;-79
2022/09/17 01:32:11;;;;;;;31.25;2.45;;;9.10;99.90;;;;;;5074025;28;20040;-78
2022/09/17 01:34:44;;;;;;;32.85;2.47;;;9.10;99.90;;;;;;5070895;28;20092;-82
2022/09/17 01:37:15;;;;;;;23.75;1.95;;;9.10;99.90;;;;;;5071173;28;20057;-79
2022/09/17 01:39:50;;;;;;;18.52;1.80;;;9.00;99.90;;;;;;5053876;28;20060;-78
2022/09/17 01:42:42;;;;;;;22.40;2.53;;;9.10;99.90;;;;;;5053575;28;20474;-77
2022/09/17 01:45:21;;;;;;;24.00;1.40;;;9.20;99.90;;;;;;5053030;28;20059;-78
2022/09/17 01:47:58;;;;;;;30.90;1.83;;;9.20;99.90;;;;;;5053428;28;20124;-76
2022/09/17 01:50:31;;;;;;;16.88;1.40;;;9.40;99.90;;;;;;5036075;28;20067;-77
2022/09/17 01:52:58;;;;;;;29.83;1.75;;;9.40;99.90;;;;;;5053464;28;20102;-76
2022/09/17 01:55:31;;;;;;;31.88;2.22;;;9.60;99.90;;;;;;5053314;28;20053;-77
2022/09/17 01:58:11;;;;;;;26.98;1.00;;;9.70;99.90;;;;;;5054057;28;20052;-76
2022/09/17 02:00:41;;;;;;;28.63;1.30;;;9.70;99.90;;;;;;5053783;28;20049;-77
2022/09/17 02:03:31;;;;;;;19.17;1.65;;;9.80;99.90;;;;;;5087762;28;20052;-76
2022/09/17 02:06:12;;;;;;;25.35;1.95;;;9.80;99.90;;;;;;5061239;28;20381;-83
2022/09/17 02:08:52;;;;;;;26.58;1.83;;;9.90;99.90;;;;;;5071162;28;20102;-75
2022/09/17 02:11:19;;;;;;;17.25;0.95;;;9.80;99.90;;;;;;5074147;28;20127;-75
2022/09/17 02:13:57;;;;;;;29.38;1.63;;;9.90;99.90;;;;;;5073785;28;20496;-74
2022/09/17 02:16:28;;;;;;;27.58;1.38;;;9.90;99.90;;;;;;5062923;28;20041;-75
2022/09/17 02:19:22;;;;;;;21.77;1.17;;;9.90;99.90;;;;;;5053630;28;20048;-74
2022/09/17 02:21:50;;;;;;;17.55;1.10;;;10.00;99.90;;;;;;5053617;28;20053;-78
2022/09/17 02:24:19;;;;;;;22.30;2.33;;;9.90;99.90;;;;;;5073118;28;20149;-74
2022/09/17 02:26:52;;;;;;;22.60;1.20;;;9.80;99.90;;;;;;5073050;28;20139;-75
2022/09/17 02:29:34;;;;;;;16.85;1.10;;;9.70;99.90;;;;;;5060687;28;20053;-76
2022/09/17 02:32:00;;;;;;;18.15;0.95;;;9.60;99.90;;;;;;5051977;28;20041;-83
2022/09/17 02:34:28;;;;;;;24.07;1.53;;;9.50;99.90;;;;;;5051059;28;20056;-77
2022/09/17 02:36:55;;;;;;;18.83;1.73;;;9.40;99.90;;;;;;5055468;28;20084;-76
2022/09/17 02:39:20;;;;;;;21.08;1.30;;;9.40;99.90;;;;;;5073172;28;20066;-78
2022/09/17 02:41:46;;;;;;;23.98;1.88;;;9.30;99.90;;;;;;5072491;28;20151;-78
2022/09/17 02:44:54;;;;;;;17.27;1.55;;;9.30;99.90;;;;;;5072372;28;20090;-80
2022/09/17 02:47:25;;;;;;;25.00;2.65;;;9.30;99.90;;;;;;5071444;28;20052;-78
2022/09/17 02:50:09;;;;;;;13.50;0.90;;;9.30;99.90;;;;;;5072475;28;20481;-76
2022/09/17 02:52:44;;;;;;;15.23;1.10;;;9.30;99.90;;;;;;5072481;28;20167;-82
2022/09/17 02:55:23;;;;;;;23.08;1.30;;;9.30;99.90;;;;;;5072955;28;20040;-81
2022/09/17 02:57:55;;;;;;;19.15;1.10;;;9.30;99.90;;;;;;5072893;28;20102;-78
2022/09/17 03:00:22;;;;;;;21.85;1.65;;;9.30;99.90;;;;;;5071321;28;20044;-78
2022/09/17 03:02:49;;;;;;;17.77;0.90;;;9.40;99.90;;;;;;5070180;28;20048;-78
2022/09/17 03:05:18;;;;;;;18.88;1.15;;;9.40;99.90;;;;;;5071581;28;20045;-76
2022/09/17 03:07:44;;;;;;;13.82;0.88;;;9.60;99.90;;;;;;5073056;28;20044;-77
2022/09/17 03:10:09;;;;;;;18.40;1.45;;;9.70;99.90;;;;;;5072369;28;20044;-72
2022/09/17 03:12:36;;;;;;;12.50;0.90;;;9.80;99.90;;;;;;5072466;28;20052;-75
2022/09/17 03:15:02;;;;;;;17.53;0.83;;;9.90;99.90;;;;;;5072663;28;20087;-77
2022/09/17 03:17:28;;;;;;;24.98;1.30;;;9.70;99.90;;;;;;5071195;28;20401;-77
2022/09/17 03:19:54;;;;;;;13.03;0.70;;;9.60;99.90;;;;;;5053040;28;20218;-74
2022/09/17 03:22:20;;;;;;;20.98;1.45;;;9.50;99.90;;;;;;5071511;28;20044;-76
2022/09/17 03:24:45;;;;;;;14.73;1.10;;;9.30;99.90;;;;;;5071951;28;20395;-74
2022/09/17 03:27:11;;;;;;;14.93;0.73;;;9.20;99.90;;;;;;5071791;28;20125;-75
2022/09/17 03:29:37;;;;;;;13.75;0.90;;;9.20;99.90;;;;;;5070693;28;20048;-76
2022/09/17 03:32:03;;;;;;;17.27;0.60;;;9.20;99.90;;;;;;5072350;28;20048;-75
2022/09/17 03:34:29;;;;;;;20.48;1.90;;;9.10;99.90;;;;;;5070143;28;20055;-77
2022/09/17 03:36:54;;;;;;;16.13;0.65;;;9.00;99.90;;;;;;5070454;28;20052;-77
2022/09/17 03:39:20;;;;;;;17.77;1.05;;;9.00;99.90;;;;;;5057526;28;20056;-78
2022/09/17 03:41:46;;;;;;;15.25;0.90;;;9.00;99.90;;;;;;5072661;28;20063;-78
2022/09/17 03:44:11;;;;;;;14.45;0.70;;;8.90;99.90;;;;;;5071998;28;20498;-78
2022/09/17 03:46:37;;;;;;;22.55;1.25;;;8.90;99.90;;;;;;5074104;28;20400;-77
2022/09/17 03:49:03;;;;;;;20.35;1.17;;;8.80;99.90;;;;;;5071880;28;20130;-76
2022/09/17 03:51:29;;;;;;;11.70;0.88;;;8.80;99.90;;;;;;5074705;28;20052;-77
2022/09/17 03:53:55;;;;;;;20.42;1.00;;;8.80;99.90;;;;;;5074304;28;20116;-80
2022/09/17 03:56:21;;;;;;;13.98;0.80;;;8.70;99.90;;;;;;5080762;28;20110;-79
2022/09/17 03:58:46;;;;;;;13.60;0.80;;;8.60;99.90;;;;;;5081021;28;20059;-79
2022/09/17 04:01:12;;;;;;;22.58;1.88;;;8.60;99.90;;;;;;5096516;28;20514;-76
2022/09/17 04:03:38;;;;;;;20.00;1.50;;;8.60;99.90;;;;;;5094640;28;20040;-76
2022/09/17 04:06:03;;;;;;;19.35;0.98;;;8.60;99.90;;;;;;5078327;28;20493;-75
2022/09/17 04:08:29;;;;;;;16.13;1.13;;;8.70;99.90;;;;;;5076331;28;20721;-77
2022/09/17 04:10:55;;;;;;;11.98;0.60;;;8.70;99.90;;;;;;5058590;28;20436;-78
2022/09/17 04:13:21;;;;;;;12.60;0.88;;;8.60;99.90;;;;;;5058650;28;20047;-78
2022/09/17 04:15:47;;;;;;;14.10;1.35;;;8.60;99.90;;;;;;5054936;28;20044;-77
2022/09/17 04:18:13;;;;;;;12.73;0.65;;;8.60;99.90;;;;;;5053655;28;20131;-81
2022/09/17 04:20:39;;;;;;;17.45;0.95;;;8.60;99.90;;;;;;5080451;28;20066;-78
2022/09/17 04:23:08;;;;;;;22.17;1.02;;;8.50;99.90;;;;;;5083194;28;20075;-75
2022/09/17 04:25:34;;;;;;;13.82;0.82;;;8.60;99.90;;;;;;5078679;28;20074;-74
2022/09/17 04:28:00;;;;;;;19.02;1.00;;;8.60;99.90;;;;;;5072435;28;20067;-76
2022/09/17 04:30:26;;;;;;;22.33;1.38;;;8.60;99.90;;;;;;5071576;28;20135;-78
2022/09/17 04:32:51;;;;;;;22.13;1.10;;;8.60;99.90;;;;;;5070383;28;20082;-76
2022/09/17 04:35:17;;;;;;;15.30;0.93;;;8.60;99.90;;;;;;5071188;28;20052;-75
2022/09/17 04:37:50;;;;;;;18.85;0.90;;;8.60;99.90;;;;;;5070213;28;20489;-76
2022/09/17 04:40:16;;;;;;;22.27;1.63;;;8.70;99.90;;;;;;5061978;28;20057;-76
2022/09/17 04:42:41;;;;;;;21.67;2.05;;;8.70;99.90;;;;;;5054141;28;20045;-77
2022/09/17 04:45:07;;;;;;;20.38;1.58;;;8.70;99.90;;;;;;5036275;28;20061;-76
2022/09/17 04:47:36;;;;;;;15.02;1.23;;;8.80;99.90;;;;;;5054751;28;20079;-78
2022/09/17 04:50:02;;;;;;;30.88;1.10;;;8.80;99.90;;;;;;5057097;28;20032;-76
2022/09/17 04:52:28;;;;;;;18.75;0.80;;;8.70;99.90;;;;;;5074347;28;20047;-76
2022/09/17 04:54:55;;;;;;;21.75;1.35;;;8.70;99.90;;;;;;5077279;28;20135;-77
2022/09/17 04:57:22;;;;;;;18.30;1.67;;;8.80;99.90;;;;;;5076724;28;20097;-78
2022/09/17 04:59:48;;;;;;;24.48;1.00;;;8.80;99.90;;;;;;5066562;28;20099;-78
2022/09/17 05:02:13;;;;;;;20.95;1.20;;;8.90;99.90;;;;;;5057361;28;20037;-84
2022/09/17 05:04:39;;;;;;;20.92;1.10;;;8.90;99.90;;;;;;5091923;28;20037;-74
2022/09/17 05:07:05;;;;;;;28.13;1.50;;;9.00;99.90;;;;;;5065034;28;20049;-77
2022/09/17 05:09:30;;;;;;;24.45;0.98;;;9.10;99.90;;;;;;5060355;28;20085;-77
2022/09/17 05:11:56;;;;;;;27.98;2.17;;;9.20;99.90;;;;;;5062998;28;20048;-75
2022/09/17 05:14:22;;;;;;;19.52;1.30;;;9.20;99.90;;;;;;5054529;28;20053;-74
2022/09/17 05:16:47;;;;;;;16.98;1.38;;;9.10;99.90;;;;;;5055147;28;20041;-74
2022/09/17 05:19:13;;;;;;;12.95;0.85;;;9.10;99.90;;;;;;5053252;28;20096;-80
2022/09/17 05:21:39;;;;;;;24.35;0.90;;;9.10;99.90;;;;;;5054630;28;20045;-74
2022/09/17 05:24:05;;;;;;;17.75;0.98;;;9.00;99.90;;;;;;5056700;28;20055;-74
2022/09/17 05:26:30;;;;;;;17.67;0.88;;;9.00;99.90;;;;;;5055904;28;20044;-74
2022/09/17 05:28:56;;;;;;;13.20;0.80;;;9.00;99.90;;;;;;5055869;28;20044;-75
2022/09/17 05:31:22;;;;;;;18.02;1.42;;;8.90;99.90;;;;;;5056309;28;20045;-75
2022/09/17 05:33:47;;;;;;;12.43;1.10;;;8.80;99.90;;;;;;5074106;28;20148;-75
2022/09/17 05:36:13;;;;;;;13.18;1.02;;;8.70;99.90;;;;;;5073541;28;20053;-74
2022/09/17 05:38:39;;;;;;;13.02;0.60;;;8.60;99.90;;;;;;5074795;28;20044;-74
2022/09/17 05:41:05;;;;;;;14.35;0.68;;;8.60;99.90;;;;;;5074192;28;20080;-75
2022/09/17 05:43:32;;;;;;;15.32;1.02;;;8.50;99.90;;;;;;5055499;28;20044;-77
2022/09/17 05:46:04;;;;;;;11.63;0.70;;;8.50;99.90;;;;;;5074763;28;20052;-75
2022/09/17 05:48:30;;;;;;;15.63;0.50;;;8.50;99.90;;;;;;5068408;28;20104;-73
2022/09/17 05:50:56;;;;;;;13.50;0.90;;;8.40;99.90;;;;;;5052128;28;20119;-73
2022/09/17 05:53:22;;;;;;;18.02;0.88;;;8.50;99.90;;;;;;5065916;28;20072;-78
2022/09/17 05:55:48;;;;;;;14.73;1.00;;;8.50;99.90;;;;;;5073115;28;20040;-74
2022/09/17 05:58:16;;;;;;;13.77;0.73;;;8.60;99.90;;;;;;5073340;28;20293;-75
2022/09/17 06:00:43;;;;;;;14.07;1.05;;;8.90;99.90;;;;;;5077299;28;20044;-75
2022/09/17 06:03:13;;;;;;;16.58;0.80;;;8.90;99.90;;;;;;5075245;28;20054;-76
2022/09/17 06:05:39;;;;;;;16.48;1.17;;;8.90;99.90;;;;;;5059548;28;20045;-76
2022/09/17 06:08:06;;;;;;;14.00;0.95;;;9.00;99.90;;;;;;5060734;28;20076;-77
2022/09/17 06:10:36;;;;;;;11.40;0.60;;;9.00;99.90;;;;;;5070871;28;20061;-75
2022/09/17 06:13:01;;;;;;;16.55;0.88;;;9.00;99.90;;;;;;5056071;28;20083;-76
2022/09/17 06:15:27;;;;;;;13.52;0.77;;;9.00;99.90;;;;;;5056773;28;20469;-75
2022/09/17 06:17:53;;;;;;;11.85;0.55;;;9.00;99.90;;;;;;5057306;28;20052;-75
2022/09/17 06:20:20;;;;;;;12.40;1.10;;;9.00;99.90;;;;;;5069558;28;20120;-84
2022/09/17 06:22:46;;;;;;;11.15;0.77;;;9.00;99.90;;;;;;5076645;28;20052;-75
2022/09/17 06:25:12;;;;;;;24.25;2.75;;;9.10;99.90;;;;;;5076213;28;20048;-76
2022/09/17 06:27:38;;;;;;;20.08;0.70;;;9.20;99.90;;;;;;5075394;28;20055;-77
2022/09/17 06:30:05;;;;;;;20.27;2.45;;;9.30;99.90;;;;;;5072326;28;20040;-77
2022/09/17 06:32:31;;;;;;;10.90;0.45;;;9.60;99.90;;;;;;5056982;28;20041;-80
2022/09/17 06:34:57;;;;;;;18.55;0.95;;;9.70;99.90;;;;;;5070480;28;20045;-74
2022/09/17 06:37:28;;;;;;;13.75;0.65;;;9.80;99.90;;;;;;5071594;28;20045;-75
2022/09/17 06:39:53;;;;;;;15.50;1.23;;;9.90;99.90;;;;;;5073643;28;20074;-75
2022/09/17 06:42:19;;;;;;;16.73;0.95;;;10.00;99.90;;;;;;5075436;28;20068;-81
2022/09/17 06:44:45;;;;;;;13.35;0.70;;;10.10;99.90;;;;;;5097372;28;20347;-77
2022/09/17 06:47:10;;;;;;;23.45;0.77;;;10.20;99.90;;;;;;5075096;28;20123;-76
2022/09/17 06:49:36;;;;;;;16.55;0.80;;;10.40;99.90;;;;;;5074357;28;20049;-75
2022/09/17 06:52:03;;;;;;;14.63;0.90;;;10.40;99.90;;;;;;5076208;28;20044;-74
2022/09/17 06:54:28;;;;;;;21.48;0.88;;;10.40;99.90;;;;;;5076616;28;20060;-74
2022/09/17 06:56:54;;;;;;;18.65;1.33;;;10.40;99.90;;;;;;5075944;28;20128;-76
2022/09/17 06:59:20;;;;;;;18.75;0.77;;;10.40;99.90;;;;;;5075540;28;20044;-74
2022/09/17 07:01:46;;;;;;;12.73;1.10;;;10.50;99.90;;;;;;5075438;28;20113;-75
2022/09/17 07:04:12;;;;;;;11.13;0.68;;;10.60;99.90;;;;;;5074925;28;20033;-78
2022/09/17 07:06:38;;;;;;;14.30;0.90;;;10.70;99.90;;;;;;5075707;28;20051;-73
2022/09/17 07:09:06;;;;;;;27.45;1.90;;;10.90;99.90;;;;;;5070860;28;20116;-76
2022/09/17 07:11:32;;;;;;;28.15;2.03;;;10.90;99.90;;;;;;5057469;28;20049;-75
2022/09/17 07:13:58;;;;;;;14.93;0.50;;;10.80;99.90;;;;;;5056130;28;20060;-72
2022/09/17 07:16:25;;;;;;;13.95;1.02;;;10.70;99.90;;;;;;5053098;28;20049;-84
2022/09/17 07:18:51;;;;;;;15.95;1.20;;;10.60;99.90;;;;;;5064129;28;20045;-74
2022/09/17 07:21:17;;;;;;;13.57;1.00;;;10.60;99.90;;;;;;5059411;28;20064;-75
2022/09/17 07:23:44;;;;;;;12.00;0.93;;;10.60;99.90;;;;;;5076313;28;20049;-75
2022/09/17 07:26:14;;;;;;;16.77;0.90;;;10.70;99.90;;;;;;5076715;28;20080;-76
2022/09/17 07:28:40;;;;;;;17.38;1.58;;;10.80;99.90;;;;;;5076257;28;20075;-74
2022/09/17 07:31:08;;;;;;;14.23;0.85;;;10.80;99.90;;;;;;5077941;28;20083;-76
2022/09/17 07:33:34;;;;;;;10.07;0.90;;;10.90;99.90;;;;;;5075798;28;20050;-78
2022/09/17 07:36:04;;;;;;;15.80;0.90;;;11.00;99.90;;;;;;5054906;28;20053;-75
2022/09/17 07:38:30;;;;;;;10.13;0.55;;;11.00;99.90;;;;;;5057476;28;20049;-75
2022/09/17 07:40:58;;;;;;;7.43;0.60;;;11.10;99.90;;;;;;5038661;28;20052;-77
2022/09/17 07:43:25;;;;;;;10.32;0.60;;;11.30;99.90;;;;;;5055502;28;20049;-75
2022/09/17 07:45:52;;;;;;;7.88;0.40;;;11.30;99.90;;;;;;5056234;28;20454;-76
2022/09/17 07:48:19;;;;;;;5.65;0.30;;;11.40;99.90;;;;;;5055822;28;20114;-76
2022/09/17 07:50:44;;;;;;;8.77;0.38;;;11.50;99.90;;;;;;5074898;28;20135;-78
2022/09/17 07:53:10;;;;;;;13.20;0.50;;;11.60;99.90;;;;;;5036850;28;20115;-75
2022/09/17 07:55:36;;;;;;;9.65;0.68;;;11.70;99.90;;;;;;5063280;28;20587;-75
2022/09/17 07:58:02;;;;;;;5.63;0.95;;;11.80;99.90;;;;;;5074722;28;20041;-72
2022/09/17 08:00:27;;;;;;;8.73;0.55;;;11.90;99.90;;;;;;5091826;28;20043;-76
2022/09/17 08:02:54;;;;;;;7.38;0.52;;;12.00;99.90;;;;;;5108268;28;20470;-73
2022/09/17 08:05:21;;;;;;;7.57;0.40;;;12.20;99.90;;;;;;5072403;28;20045;-78
2022/09/17 08:07:51;;;;;;;12.75;0.77;;;12.40;99.90;;;;;;5070784;28;20142;-74
2022/09/17 08:10:20;;;;;;;7.35;0.40;;;12.70;99.90;;;;;;5096568;28;20047;-75
2022/09/17 08:12:47;;;;;;;9.40;0.52;;;12.80;99.90;;;;;;5096971;28;20051;-77
2022/09/17 08:15:17;;;;;;;11.73;0.82;;;13.00;99.90;;;;;;5099192;28;20048;-75
2022/09/17 08:17:44;;;;;;;12.15;0.80;;;12.80;99.90;;;;;;5100726;28;20052;-75
2022/09/17 08:20:10;;;;;;;14.55;0.60;;;12.60;99.90;;;;;;5082269;28;20109;-78
2022/09/17 08:22:36;;;;;;;9.60;0.40;;;12.30;99.90;;;;;;5093656;28;20045;-75
2022/09/17 08:25:03;;;;;;;8.88;0.45;;;12.30;99.90;;;;;;5079363;28;20124;-77
2022/09/17 08:27:30;;;;;;;9.07;0.60;;;12.10;99.90;;;;;;5075835;28;20040;-74
2022/09/17 08:29:56;;;;;;;12.27;0.50;;;12.10;99.90;;;;;;5058830;28;20477;-75
2022/09/17 08:32:21;;;;;;;5.10;0.90;;;12.10;99.90;;;;;;5059334;28;20060;-77
2022/09/17 08:34:47;;;;;;;6.45;0.20;;;12.00;99.90;;;;;;5073804;28;20065;-80
2022/09/17 08:37:15;;;;;;;9.52;0.60;;;12.00;99.90;;;;;;5060347;28;20051;-81
2022/09/17 08:39:41;;;;;;;12.40;0.30;;;12.00;99.90;;;;;;5079232;28;20062;-77
2022/09/17 08:42:20;;;;;;;7.13;0.88;;;12.10;99.90;;;;;;5082136;28;20059;-75
2022/09/17 08:44:46;;;;;;;11.18;0.50;;;12.10;99.90;;;;;;5079638;28;20056;-74
2022/09/17 08:47:24;;;;;;;5.65;0.60;;;11.80;99.90;;;;;;5079090;28;20048;-75
2022/09/17 08:49:59;;;;;;;9.88;0.40;;;11.70;99.90;;;;;;5072506;28;20071;-77
2022/09/17 08:53:05;;;;;;;6.97;0.30;;;11.60;99.90;;;;;;5073656;28;20056;-74
2022/09/17 08:55:40;;;;;;;9.93;0.52;;;11.70;99.90;;;;;;5079599;28;20096;-74
2022/09/17 08:58:32;;;;;;;8.45;0.30;;;11.90;99.90;;;;;;5080490;28;20084;-76
2022/09/17 09:01:26;;;;;;;7.57;0.50;;;12.40;99.90;;;;;;5092721;28;20082;-76
2022/09/17 09:04:17;;;;;;;6.78;0.32;;;12.80;99.90;;;;;;5087305;28;20044;-77
2022/09/17 09:06:50;;;;;;;6.63;0.45;;;13.10;99.90;;;;;;5092780;28;20110;-80
2022/09/17 09:09:19;;;;;;;6.28;0.32;;;13.30;99.90;;;;;;5094265;28;20091;-77
2022/09/17 09:11:48;;;;;;;8.23;0.45;;;13.30;99.90;;;;;;5093918;28;20040;-76
2022/09/17 09:14:22;;;;;;;9.55;0.30;;;13.10;99.90;;;;;;5095854;28;20060;-77
2022/09/17 09:16:51;;;;;;;10.23;0.60;;;12.40;99.90;;;;;;5070582;28;20045;-76
2022/09/17 09:19:32;;;;;;;5.10;0.20;;;11.80;99.90;;;;;;5046962;28;20099;-81
2022/09/17 09:22:15;;;;;;;8.05;0.32;;;11.50;99.90;;;;;;5055172;28;20049;-76
2022/09/17 09:25:09;;;;;;;10.05;0.22;;;11.20;99.90;;;;;;5059672;28;20045;-75
2022/09/17 09:27:46;;;;;;;6.45;0.40;;;11.10;99.90;;;;;;5061210;28;20057;-83
2022/09/17 09:30:15;;;;;;;7.55;0.32;;;11.20;99.90;;;;;;5091514;28;20076;-77
2022/09/17 09:33:01;;;;;;;10.00;0.28;;;11.20;99.90;;;;;;5065751;28;20048;-78
2022/09/17 09:35:31;;;;;;;4.93;0.35;;;11.30;99.90;;;;;;5083954;28;20492;-77
2022/09/17 09:38:00;;;;;;;6.88;0.40;;;11.40;99.90;;;;;;5083066;28;20052;-78
2022/09/17 09:40:58;;;;;;;7.05;0.30;;;11.40;99.90;;;;;;5085468;28;20396;-81
2022/09/17 09:43:58;;;;;;;5.20;0.30;;;11.50;99.90;;;;;;5062282;28;20074;-79
2022/09/17 09:46:40;;;;;;;8.55;0.63;;;11.60;99.90;;;;;;5055287;28;20084;-80
2022/09/17 09:49:24;;;;;;;9.80;1.20;;;11.90;99.90;;;;;;5062460;28;20055;-76
2022/09/17 09:52:08;;;;;;;11.10;0.63;;;12.40;99.90;;;;;;5058933;28;20480;-76
2022/09/17 09:55:38;;;;;;;9.70;0.40;;;12.70;99.90;;;;;;5081832;28;20071;-81
2022/09/17 09:58:28;;;;;;;13.05;0.60;;;12.60;99.90;;;;;;5077338;28;20087;-82
2022/09/17 10:00:53;;;;;;;11.32;0.60;;;12.00;99.90;;;;;;5101747;28;20103;-77
2022/09/17 10:03:26;;;;;;;14.13;0.57;;;11.70;99.90;;;;;;5103396;28;20454;-76
2022/09/17 10:05:58;;;;;;;8.50;0.55;;;11.40;99.90;;;;;;5077330;28;20053;-79
2022/09/17 10:08:33;;;;;;;6.57;0.22;;;11.30;99.90;;;;;;5064395;28;20052;-77
2022/09/17 10:11:20;;;;;;;5.53;0.70;;;11.30;99.90;;;;;;5062186;28;20674;-79
2022/09/17 10:13:46;;;;;;;5.75;0.47;;;11.50;99.90;;;;;;5062833;28;20049;-79
2022/09/17 10:16:20;;;;;;;6.40;0.50;;;11.70;99.90;;;;;;5062940;28;20110;-80
2022/09/17 10:18:47;;;;;;;10.85;0.57;;;12.10;99.90;;;;;;5067455;28;20082;-78
2022/09/17 10:21:19;;;;;;;;;;;12.00;99.90;;;;;;5083623;28;20060;-77
2022/09/17 10:23:45;;;;;;;12.60;0.70;;;11.90;99.90;;;;;;5075042;28;19921;-74
2022/09/17 10:26:34;;;;;;;11.57;0.47;;;11.80;99.90;;;;;;5064067;28;20044;-75
2022/09/17 10:29:02;;;;;;;8.75;0.40;;;11.50;99.90;;;;;;5073502;28;20306;-74
2022/09/17 10:31:49;;;;;;;8.57;0.68;;;11.30;99.90;;;;;;5083116;28;20048;-74
2022/09/17 10:34:24;;;;;;;7.35;0.60;;;11.40;99.90;;;;;;5081943;28;20055;-77
2022/09/17 10:36:50;;;;;;;8.10;0.50;;;11.70;99.90;;;;;;5082954;28;20078;-75
2022/09/17 10:39:25;;;;;;;8.23;0.33;;;11.70;99.90;;;;;;5061583;28;20051;-73
2022/09/17 10:42:01;;;;;;;14.02;0.50;;;11.90;99.90;;;;;;5095625;28;20053;-75
2022/09/17 10:44:35;;;;;;;12.40;0.70;;;11.90;99.90;;;;;;5063174;28;20045;-76
2022/09/17 10:47:03;;;;;;;10.32;0.50;;;12.00;99.90;;;;;;5063376;28;20052;-76
2022/09/17 10:49:55;;;;;;;13.05;1.00;;;12.30;99.90;;;;;;5062367;28;20056;-78
2022/09/17 10:52:29;;;;;;;8.30;0.88;;;12.20;99.90;;;;;;5067123;28;20052;-80
2022/09/17 10:55:32;;;;;;;13.68;0.80;;;12.00;99.90;;;;;;5082211;28;20044;-76
2022/09/17 10:58:07;;;;;;;10.88;0.70;;;11.70;99.90;;;;;;5083506;28;20104;-78
2022/09/17 11:00:53;;;;;;;7.72;0.50;;;11.70;99.90;;;;;;5083801;28;20402;-79
2022/09/17 11:03:22;;;;;;;6.43;1.23;;;11.60;99.90;;;;;;5080259;28;20479;-81
2022/09/17 11:06:17;;;;;;;11.90;0.68;;;11.80;99.90;;;;;;5083919;28;20052;-78
2022/09/17 11:09:07;;;;;;;12.68;0.40;;;11.90;99.90;;;;;;5070862;28;20044;-81
2022/09/17 11:11:58;;;;;;;8.63;0.35;;;12.10;99.90;;;;;;5067280;28;20045;-78
2022/09/17 11:14:36;;;;;;;6.53;0.65;;;12.20;99.90;;;;;;5064563;28;20052;-77
2022/09/17 11:17:26;;;;;;;11.60;0.60;;;12.30;99.90;;;;;;5062621;28;20401;-76
2022/09/17 11:20:07;;;;;;;6.65;0.43;;;12.50;99.90;;;;;;5063083;28;20047;-78
2022/09/17 11:22:43;;;;;;;9.07;0.65;;;12.70;99.90;;;;;;5062278;28;20071;-78
2022/09/17 11:25:21;;;;;;;12.38;0.45;;;12.90;99.90;;;;;;5069219;28;20051;-80
2022/09/17 11:27:52;;;;;;;6.95;0.45;;;13.00;99.90;;;;;;5087986;28;20063;-83
2022/09/17 11:30:20;;;;;;;9.15;0.50;;;13.10;99.90;;;;;;5087060;28;20608;-81
2022/09/17 11:32:59;;;;;;;8.52;0.82;;;;;;;;;;5102136;28;20048;-81
2022/09/17 11:35:37;;;;;;;13.07;0.60;;;13.60;99.90;;;;;;5102634;28;20044;-79
2022/09/17 11:38:24;;;;;;;6.40;0.30;;;14.90;99.90;;;;;;5078665;28;20068;-79
2022/09/17 11:41:02;;;;;;;8.40;0.40;;;;;;;;;;5058650;28;20136;-77
2022/09/17 11:43:32;;;;;;;7.00;0.40;;;14.40;99.90;;;;;;5060922;28;20084;-75
2022/09/17 11:46:30;;;;;;;8.07;0.60;;;14.60;99.90;;;;;;5058703;28;20063;-77
2022/09/17 11:49:31;;;;;;;6.35;0.20;;;14.50;99.90;;;;;;5061109;28;20045;-80
2022/09/17 11:52:20;;;;;;;3.25;0.20;;;13.20;99.90;;;;;;5064403;28;20052;-76
2022/09/17 11:54:51;;;;;;;10.35;0.40;;;11.50;99.90;;;;;;5065092;28;20095;-81
2022/09/17 11:57:32;;;;;;;8.07;0.45;;;11.00;99.90;;;;;;5081134;28;20052;-76
2022/09/17 12:00:06;;;;;;;8.40;0.47;;;10.80;99.90;;;;;;5090752;28;20127;-75
2022/09/17 12:02:45;;;;;;;4.22;0.68;;;10.80;99.90;;;;;;5102799;28;20247;-75
2022/09/17 12:05:18;;;;;;;5.88;0.35;;;10.70;99.90;;;;;;5078798;28;20051;-75
2022/09/17 12:07:54;;;;;;;10.52;0.68;;;10.80;99.90;;;;;;5043218;28;20036;-76
2022/09/17 12:10:38;;;;;;;6.00;0.30;;;11.00;99.90;;;;;;5062143;28;20099;-76
2022/09/17 12:13:41;;;;;;;6.28;0.50;;;11.10;99.90;;;;;;5059351;28;20129;-75
2022/09/17 12:16:16;;;;;;;8.07;0.30;;;11.60;99.90;;;;;;5059373;28;20040;-74
2022/09/17 12:18:55;;;;;;;12.05;0.60;;;11.90;99.90;;;;;;5059619;28;20100;-75
2022/09/17 12:21:28;;;;;;;8.07;0.40;;;12.10;99.90;;;;;;5060369;28;20048;-76
2022/09/17 12:24:20;;;;;;;7.93;0.47;;;12.20;99.90;;;;;;5078547;28;20048;-77
2022/09/17 12:26:58;;;;;;;10.65;0.45;;;12.30;99.90;;;;;;5081885;28;20108;-75
2022/09/17 12:29:41;;;;;;;14.45;0.60;;;12.50;99.90;;;;;;5082337;28;20041;-76
2022/09/17 12:32:28;;;;;;;13.30;0.50;;;12.70;99.90;;;;;;5077890;28;20044;-73
2022/09/17 12:35:03;;;;;;;13.45;0.50;;;12.80;99.90;;;;;;5093839;28;20048;-73
2022/09/17 12:37:41;;;;;;;12.52;0.65;;;12.90;99.90;;;;;;5063807;28;20076;-74
2022/09/17 12:40:25;;;;;;;15.40;1.08;;;13.00;99.90;;;;;;5065604;28;20049;-75
2022/09/17 12:43:04;;;;;;;14.27;1.10;;;13.30;99.90;;;;;;5064458;28;20104;-74
2022/09/17 12:45:46;;;;;;;10.88;0.95;;;13.20;99.90;;;;;;5061832;28;20045;-75
2022/09/17 12:48:50;;;;;;;11.65;1.80;;;13.20;99.90;;;;;;5061790;28;20053;-76
2022/09/17 12:51:53;;;;;;;14.35;1.17;;;13.20;99.90;;;;;;5063943;28;20041;-76
2022/09/17 12:54:41;;;;;;;17.25;1.23;;;13.40;99.90;;;;;;5079058;28;20398;-76
2022/09/17 12:57:12;;;;;;;17.80;0.93;;;13.30;99.90;;;;;;5081967;28;20044;-75
2022/09/17 12:59:49;;;;;;;17.88;1.45;;;13.50;99.90;;;;;;5083344;28;20481;-77
2022/09/17 13:02:56;;;;;;;20.92;1.05;;;13.50;99.90;;;;;;5067699;28;20080;-77
2022/09/17 13:05:46;;;;;;;13.35;1.30;;;13.60;99.90;;;;;;5062850;28;20044;-75
2022/09/17 13:08:45;;;;;;;17.58;0.90;;;13.80;99.90;;;;;;5063435;28;20036;-74
2022/09/17 13:11:22;;;;;;;15.38;0.80;;;14.00;99.90;;;;;;5062995;28;20045;-73
2022/09/17 13:14:11;;;;;;;18.98;1.10;;;14.30;99.90;;;;;;5090468;28;20041;-74